sensor_id;sensor_type;location;lat;lon;timestamp;pressure;altitude;pressure_sealevel;temperature;humidity
13011;BME280;6786;57.632;11.962;2023-05-03T00:01:15;101558.06;;;18.99;40.21
13011;BME280;6786;57.632;11.962;2023-05-03T00:03:44;101556.34;;;18.98;40.12
13011;BME280;6786;57.632;11.962;2023-05-03T00:06:13;101567.94;;;18.98;40.25
13011;BME280;6786;57.632;11.962;2023-05-03T00:08:44;101565.38;;;18.97;40.08
13011;BME280;6786;57.632;11.962;2023-05-03T00:11:12;101568.03;;;18.97;40.17
13011;BME280;6786;57.632;11.962;2023-05-03T00:13:40;101560.00;;;18.97;40.18
13011;BME280;6786;57.632;11.962;2023-05-03T00:16:09;101565.38;;;18.97;40.21
13011;BME280;6786;57.632;11.962;2023-05-03T00:18:37;101564.50;;;18.96;40.24
13011;BME280;6786;57.632;11.962;2023-05-03T00:21:05;101570.72;;;18.97;40.23
13011;BME280;6786;57.632;11.962;2023-05-03T00:23:34;101571.56;;;18.97;40.26
13011;BME280;6786;57.632;11.962;2023-05-03T00:26:03;101568.03;;;18.97;40.27
13011;BME280;6786;57.632;11.962;2023-05-03T00:28:31;101576.09;;;18.97;40.09
13011;BME280;6786;57.632;11.962;2023-05-03T00:31:05;101570.72;;;18.97;40.25
13011;BME280;6786;57.632;11.962;2023-05-03T00:33:34;101576.09;;;18.97;40.17
13011;BME280;6786;57.632;11.962;2023-05-03T00:36:06;101579.59;;;18.97;40.21
13011;BME280;6786;57.632;11.962;2023-05-03T00:38:35;101579.59;;;18.97;40.20
13011;BME280;6786;57.632;11.962;2023-05-03T00:41:05;101574.25;;;18.97;40.33
13011;BME280;6786;57.632;11.962;2023-05-03T00:43:34;101553.84;;;18.84;40.19
13011;BME280;6786;57.632;11.962;2023-05-03T00:46:04;101577.78;;;18.98;40.12
13011;BME280;6786;57.632;11.962;2023-05-03T00:48:43;101581.44;;;18.97;40.23
13011;BME280;6786;57.632;11.962;2023-05-03T00:51:13;101575.44;;;18.93;40.25
13011;BME280;6786;57.632;11.962;2023-05-03T00:53:42;101577.03;;;18.96;40.24
13011;BME280;6786;57.632;11.962;2023-05-03T00:56:12;101582.38;;;18.96;40.22
13011;BME280;6786;57.632;11.962;2023-05-03T00:58:45;101582.38;;;18.96;40.26
13011;BME280;6786;57.632;11.962;2023-05-03T01:01:13;101580.56;;;18.96;40.23
13011;BME280;6786;57.632;11.962;2023-05-03T01:03:41;101584.25;;;18.95;40.20
13011;BME280;6786;57.632;11.962;2023-05-03T01:06:18;101585.94;;;18.96;40.21
13011;BME280;6786;57.632;11.962;2023-05-03T01:08:57;101577.03;;;18.96;40.25
13011;BME280;6786;57.632;11.962;2023-05-03T01:11:34;101581.66;;;18.94;40.15
13011;BME280;6786;57.632;11.962;2023-05-03T01:14:11;101587.75;;;18.96;40.22
13011;BME280;6786;57.632;11.962;2023-05-03T01:16:47;101574.59;;;18.93;40.13
13011;BME280;6786;57.632;11.962;2023-05-03T01:19:27;101569.91;;;18.84;40.11
13011;BME280;6786;57.632;11.962;2023-05-03T01:22:02;101501.72;;;18.41;40.29
13011;BME280;6786;57.632;11.962;2023-05-03T01:24:31;101570.88;;;18.83;40.10
13011;BME280;6786;57.632;11.962;2023-05-03T01:27:02;101599.44;;;18.95;40.25
13011;BME280;6786;57.632;11.962;2023-05-03T01:29:31;101596.75;;;18.95;40.15
13011;BME280;6786;57.632;11.962;2023-05-03T01:32:00;101599.44;;;18.95;40.18
13011;BME280;6786;57.632;11.962;2023-05-03T01:34:48;101594.09;;;18.95;40.18
13011;BME280;6786;57.632;11.962;2023-05-03T01:37:18;101603.09;;;18.94;40.25
13011;BME280;6786;57.632;11.962;2023-05-03T01:39:50;101604.81;;;18.95;40.26
13011;BME280;6786;57.632;11.962;2023-05-03T01:42:23;101473.72;;;18.21;40.19
13011;BME280;6786;57.632;11.962;2023-05-03T01:44:52;101601.13;;;18.96;40.11
13011;BME280;6786;57.632;11.962;2023-05-03T01:47:21;101604.81;;;18.95;40.11
13011;BME280;6786;57.632;11.962;2023-05-03T01:49:50;101599.44;;;18.95;40.20
13011;BME280;6786;57.632;11.962;2023-05-03T01:52:18;101601.13;;;18.96;40.05
13011;BME280;6786;57.632;11.962;2023-05-03T01:54:46;101606.50;;;18.96;40.12
13011;BME280;6786;57.632;11.962;2023-05-03T01:57:14;101602.34;;;18.92;40.10
13011;BME280;6786;57.632;11.962;2023-05-03T01:59:44;101610.16;;;18.95;40.18
13011;BME280;6786;57.632;11.962;2023-05-03T02:02:12;101616.50;;;18.94;40.10
13011;BME280;6786;57.632;11.962;2023-05-03T02:04:40;101601.81;;;18.87;40.04
13011;BME280;6786;57.632;11.962;2023-05-03T02:07:08;101552.22;;;18.58;40.07
13011;BME280;6786;57.632;11.962;2023-05-03T02:09:36;101626.47;;;18.92;40.33
13011;BME280;6786;57.632;11.962;2023-05-03T02:12:05;101529.59;;;18.38;40.22
13011;BME280;6786;57.632;11.962;2023-05-03T02:14:33;101633.50;;;18.93;40.03
13011;BME280;6786;57.632;11.962;2023-05-03T02:17:02;101618.19;;;18.95;40.13
13011;BME280;6786;57.632;11.962;2023-05-03T02:19:34;101635.25;;;18.94;40.22
13011;BME280;6786;57.632;11.962;2023-05-03T02:22:02;101627.94;;;18.96;40.12
13011;BME280;6786;57.632;11.962;2023-05-03T02:24:30;101617.16;;;18.85;40.25
13011;BME280;6786;57.632;11.962;2023-05-03T02:27:02;101543.09;;;18.37;40.10
13011;BME280;6786;57.632;11.962;2023-05-03T02:29:31;101631.59;;;18.95;40.17
13011;BME280;6786;57.632;11.962;2023-05-03T02:31:59;101638.66;;;18.96;40.18
13011;BME280;6786;57.632;11.962;2023-05-03T02:34:28;101642.31;;;18.95;40.03
13011;BME280;6786;57.632;11.962;2023-05-03T02:36:57;101651.22;;;18.95;40.14
13011;BME280;6786;57.632;11.962;2023-05-03T02:39:25;101641.44;;;18.94;40.16
13011;BME280;6786;57.632;11.962;2023-05-03T02:41:53;101642.31;;;18.95;40.10
13011;BME280;6786;57.632;11.962;2023-05-03T02:44:21;101524.44;;;18.23;40.18
13011;BME280;6786;57.632;11.962;2023-05-03T02:46:49;101580.94;;;18.56;40.10
13011;BME280;6786;57.632;11.962;2023-05-03T02:49:17;101647.66;;;18.95;40.08
13011;BME280;6786;57.632;11.962;2023-05-03T02:51:47;101642.31;;;18.95;40.05
13011;BME280;6786;57.632;11.962;2023-05-03T02:54:15;101622.00;;;18.80;40.03
13011;BME280;6786;57.632;11.962;2023-05-03T02:56:43;101593.59;;;18.54;40.22
13011;BME280;6786;57.632;11.962;2023-05-03T02:59:11;101659.25;;;18.95;40.12
13011;BME280;6786;57.632;11.962;2023-05-03T03:01:39;101579.13;;;18.44;40.12
13011;BME280;6786;57.632;11.962;2023-05-03T03:04:08;101650.03;;;18.87;40.25
13011;BME280;6786;57.632;11.962;2023-05-03T03:06:36;101675.31;;;18.95;39.84
13011;BME280;6786;57.632;11.962;2023-05-03T03:09:06;101643.41;;;18.80;40.17
13011;BME280;6786;57.632;11.962;2023-05-03T03:11:34;101669.09;;;18.95;40.02
13011;BME280;6786;57.632;11.962;2023-05-03T03:14:02;101666.41;;;18.95;40.12
13011;BME280;6786;57.632;11.962;2023-05-03T03:16:30;101666.41;;;18.95;39.98
13011;BME280;6786;57.632;11.962;2023-05-03T03:18:59;101669.09;;;18.95;40.07
13011;BME280;6786;57.632;11.962;2023-05-03T03:21:27;101667.41;;;18.94;40.08
13011;BME280;6786;57.632;11.962;2023-05-03T03:23:55;101664.72;;;18.94;40.13
13011;BME280;6786;57.632;11.962;2023-05-03T03:26:25;101666.63;;;18.92;40.02
13011;BME280;6786;57.632;11.962;2023-05-03T03:28:53;101665.88;;;18.90;40.10
13011;BME280;6786;57.632;11.962;2023-05-03T03:31:21;101644.41;;;18.79;40.05
13011;BME280;6786;57.632;11.962;2023-05-03T03:33:51;101681.50;;;18.96;40.02
13011;BME280;6786;57.632;11.962;2023-05-03T03:36:20;101660.03;;;18.85;40.10
13011;BME280;6786;57.632;11.962;2023-05-03T03:38:49;101674.44;;;18.95;40.05
13011;BME280;6786;57.632;11.962;2023-05-03T03:41:17;101679.81;;;18.95;40.11
13011;BME280;6786;57.632;11.962;2023-05-03T03:43:47;101680.78;;;18.94;40.03
13011;BME280;6786;57.632;11.962;2023-05-03T03:46:15;101690.53;;;18.95;40.06
13011;BME280;6786;57.632;11.962;2023-05-03T03:48:43;101664.63;;;18.83;39.95
13011;BME280;6786;57.632;11.962;2023-05-03T03:51:11;101688.81;;;18.94;40.02
13011;BME280;6786;57.632;11.962;2023-05-03T03:53:40;101691.63;;;18.92;40.11
13011;BME280;6786;57.632;11.962;2023-05-03T03:56:08;101694.19;;;18.94;39.97
13011;BME280;6786;57.632;11.962;2023-05-03T03:58:36;101694.19;;;18.94;40.02
13011;BME280;6786;57.632;11.962;2023-05-03T04:01:06;101663.16;;;18.79;40.04
13011;BME280;6786;57.632;11.962;2023-05-03T04:03:34;101697.59;;;18.96;39.91
13011;BME280;6786;57.632;11.962;2023-05-03T04:06:03;101691.28;;;18.97;39.90
13011;BME280;6786;57.632;11.962;2023-05-03T04:08:31;101703.47;;;19.01;40.02
13011;BME280;6786;57.632;11.962;2023-05-03T04:11:01;101700.56;;;19.04;40.13
13011;BME280;6786;57.632;11.962;2023-05-03T04:13:29;101699.59;;;19.05;40.20
13011;BME280;6786;57.632;11.962;2023-05-03T04:15:57;101702.28;;;19.05;40.04
13011;BME280;6786;57.632;11.962;2023-05-03T04:18:30;101701.56;;;19.03;40.07
13011;BME280;6786;57.632;11.962;2023-05-03T04:20:58;101690.19;;;18.99;40.02
13011;BME280;6786;57.632;11.962;2023-05-03T04:23:26;101707.63;;;19.05;40.41
13011;BME280;6786;57.632;11.962;2023-05-03T04:25:55;101700.81;;;19.01;39.89
13011;BME280;6786;57.632;11.962;2023-05-03T04:28:23;101708.63;;;19.04;40.21
13011;BME280;6786;57.632;11.962;2023-05-03T04:30:53;101704.25;;;19.03;40.07
13011;BME280;6786;57.632;11.962;2023-05-03T04:33:24;101589.97;;;18.30;40.06
13011;BME280;6786;57.632;11.962;2023-05-03T04:35:54;101718.56;;;19.02;40.08
13011;BME280;6786;57.632;11.962;2023-05-03T04:38:22;101716.88;;;19.01;40.12
13011;BME280;6786;57.632;11.962;2023-05-03T04:40:50;101716.00;;;19.00;40.15
13011;BME280;6786;57.632;11.962;2023-05-03T04:43:19;101723.22;;;19.00;40.13
13011;BME280;6786;57.632;11.962;2023-05-03T04:45:47;101729.41;;;19.00;40.09
13011;BME280;6786;57.632;11.962;2023-05-03T04:48:17;101725.91;;;19.00;40.06
13011;BME280;6786;57.632;11.962;2023-05-03T04:50:45;101714.09;;;18.90;40.07
13011;BME280;6786;57.632;11.962;2023-05-03T04:53:14;101697.22;;;18.77;40.10
13011;BME280;6786;57.632;11.962;2023-05-03T04:55:43;101735.09;;;18.96;40.08
13011;BME280;6786;57.632;11.962;2023-05-03T04:58:11;101740.22;;;18.99;40.01
13011;BME280;6786;57.632;11.962;2023-05-03T05:00:40;101667.78;;;18.52;39.97
13011;BME280;6786;57.632;11.962;2023-05-03T05:03:08;101752.69;;;19.00;40.02
13011;BME280;6786;57.632;11.962;2023-05-03T05:05:37;101750.13;;;18.98;40.02
13011;BME280;6786;57.632;11.962;2023-05-03T05:08:06;101747.75;;;18.94;40.04
13011;BME280;6786;57.632;11.962;2023-05-03T05:10:39;101755.47;;;18.98;40.14
13011;BME280;6786;57.632;11.962;2023-05-03T05:13:07;101756.31;;;18.99;40.00
13011;BME280;6786;57.632;11.962;2023-05-03T05:15:35;101759.00;;;18.99;40.06
13011;BME280;6786;57.632;11.962;2023-05-03T05:18:04;101763.41;;;19.00;40.00
13011;BME280;6786;57.632;11.962;2023-05-03T05:20:32;101756.31;;;18.99;40.02
13011;BME280;6786;57.632;11.962;2023-05-03T05:23:00;101764.34;;;18.99;40.17
13011;BME280;6786;57.632;11.962;2023-05-03T05:25:28;101766.09;;;19.00;40.16
13011;BME280;6786;57.632;11.962;2023-05-03T05:27:57;101768.75;;;19.00;40.00
13011;BME280;6786;57.632;11.962;2023-05-03T05:30:25;101777.75;;;18.99;40.10
13011;BME280;6786;57.632;11.962;2023-05-03T05:32:53;101776.03;;;18.98;40.15
13011;BME280;6786;57.632;11.962;2023-05-03T05:35:22;101783.09;;;18.99;40.14
13011;BME280;6786;57.632;11.962;2023-05-03T05:37:50;101777.75;;;18.99;40.04
13011;BME280;6786;57.632;11.962;2023-05-03T05:40:18;101783.09;;;18.99;40.18
13011;BME280;6786;57.632;11.962;2023-05-03T05:42:46;101785.78;;;18.99;40.13
13011;BME280;6786;57.632;11.962;2023-05-03T05:45:17;101784.84;;;19.00;40.21
13011;BME280;6786;57.632;11.962;2023-05-03T05:47:45;101788.47;;;18.99;40.34
13011;BME280;6786;57.632;11.962;2023-05-03T05:50:13;101785.06;;;18.97;40.09
13011;BME280;6786;57.632;11.962;2023-05-03T05:52:45;101798.22;;;19.00;40.01
13011;BME280;6786;57.632;11.962;2023-05-03T05:55:13;101795.78;;;18.97;40.06
13011;BME280;6786;57.632;11.962;2023-05-03T05:57:41;101799.19;;;18.99;40.13
13011;BME280;6786;57.632;11.962;2023-05-03T06:00:10;101803.59;;;19.00;40.05
13011;BME280;6786;57.632;11.962;2023-05-03T06:02:42;101819.78;;;18.98;39.99
13011;BME280;6786;57.632;11.962;2023-05-03T06:05:11;101816.97;;;19.00;40.31
13011;BME280;6786;57.632;11.962;2023-05-03T06:07:40;101822.34;;;19.00;40.22
13011;BME280;6786;57.632;11.962;2023-05-03T06:10:09;101819.78;;;18.98;40.10
13011;BME280;6786;57.632;11.962;2023-05-03T06:12:37;101824.25;;;18.98;40.16
13011;BME280;6786;57.632;11.962;2023-05-03T06:15:06;101825.97;;;18.99;40.12
13011;BME280;6786;57.632;11.962;2023-05-03T06:17:35;101832.19;;;18.99;40.17
13011;BME280;6786;57.632;11.962;2023-05-03T06:20:06;101837.56;;;18.99;40.17
13011;BME280;6786;57.632;11.962;2023-05-03T06:22:37;101814.63;;;18.83;40.23
13011;BME280;6786;57.632;11.962;2023-05-03T06:25:05;101838.41;;;19.00;40.23
13011;BME280;6786;57.632;11.962;2023-05-03T06:27:34;101838.41;;;19.00;40.13
13011;BME280;6786;57.632;11.962;2023-05-03T06:30:04;101843.78;;;19.00;40.25
13011;BME280;6786;57.632;11.962;2023-05-03T06:32:33;101835.75;;;19.00;40.09
13011;BME280;6786;57.632;11.962;2023-05-03T06:35:01;101835.75;;;19.00;40.16
13011;BME280;6786;57.632;11.962;2023-05-03T06:37:31;101829.63;;;18.98;40.10
13011;BME280;6786;57.632;11.962;2023-05-03T06:39:59;101839.25;;;19.00;40.09
13011;BME280;6786;57.632;11.962;2023-05-03T06:42:27;101833.06;;;19.00;40.16
13011;BME280;6786;57.632;11.962;2023-05-03T06:44:56;101849.13;;;19.00;40.29
13011;BME280;6786;57.632;11.962;2023-05-03T06:47:24;101763.19;;;18.53;40.02
13011;BME280;6786;57.632;11.962;2023-05-03T06:49:52;101843.78;;;19.00;40.14
13011;BME280;6786;57.632;11.962;2023-05-03T06:52:21;101843.78;;;19.00;40.17
13011;BME280;6786;57.632;11.962;2023-05-03T06:54:50;101843.78;;;19.00;40.21
13011;BME280;6786;57.632;11.962;2023-05-03T06:57:19;101779.91;;;18.56;40.21
13011;BME280;6786;57.632;11.962;2023-05-03T06:59:48;101850.84;;;19.01;40.17
13011;BME280;6786;57.632;11.962;2023-05-03T07:02:17;101850.84;;;19.01;40.21
13011;BME280;6786;57.632;11.962;2023-05-03T07:04:45;101851.72;;;19.01;40.14
13011;BME280;6786;57.632;11.962;2023-05-03T07:07:14;101856.19;;;19.01;40.13
13011;BME280;6786;57.632;11.962;2023-05-03T07:09:42;101856.19;;;19.01;40.22
13011;BME280;6786;57.632;11.962;2023-05-03T07:12:12;101859.84;;;19.00;40.12
13011;BME280;6786;57.632;11.962;2023-05-03T07:14:40;101877.63;;;19.01;40.06
13011;BME280;6786;57.632;11.962;2023-05-03T07:17:09;101861.56;;;19.01;40.09
13011;BME280;6786;57.632;11.962;2023-05-03T07:19:38;101856.19;;;19.01;40.19
13011;BME280;6786;57.632;11.962;2023-05-03T07:22:06;101860.69;;;19.00;39.87
13011;BME280;6786;57.632;11.962;2023-05-03T07:24:34;101866.91;;;19.01;40.14
13011;BME280;6786;57.632;11.962;2023-05-03T07:27:02;101861.56;;;19.01;40.19
13011;BME280;6786;57.632;11.962;2023-05-03T07:29:32;101856.41;;;18.98;40.27
13011;BME280;6786;57.632;11.962;2023-05-03T07:32:00;101872.28;;;19.01;40.18
13011;BME280;6786;57.632;11.962;2023-05-03T07:34:29;101707.69;;;18.05;40.28
13011;BME280;6786;57.632;11.962;2023-05-03T07:36:58;101872.28;;;19.01;40.22
13011;BME280;6786;57.632;11.962;2023-05-03T07:39:26;101866.03;;;19.00;40.19
13011;BME280;6786;57.632;11.962;2023-05-03T07:41:54;101862.44;;;19.01;40.28
13011;BME280;6786;57.632;11.962;2023-05-03T07:44:23;101868.63;;;19.02;40.24
13011;BME280;6786;57.632;11.962;2023-05-03T07:46:52;101865.94;;;19.02;40.16
13011;BME280;6786;57.632;11.962;2023-05-03T07:49:20;101868.63;;;19.02;40.36
13011;BME280;6786;57.632;11.962;2023-05-03T07:51:50;101874.84;;;19.02;40.14
13011;BME280;6786;57.632;11.962;2023-05-03T07:54:20;101865.44;;;18.97;40.30
13011;BME280;6786;57.632;11.962;2023-05-03T07:56:48;101865.94;;;19.02;40.19
13011;BME280;6786;57.632;11.962;2023-05-03T07:59:17;101873.97;;;19.02;40.17
13011;BME280;6786;57.632;11.962;2023-05-03T08:01:46;101877.63;;;19.01;40.18
13011;BME280;6786;57.632;11.962;2023-05-03T08:04:15;101875.94;;;19.00;40.27
13011;BME280;6786;57.632;11.962;2023-05-03T08:06:44;101873.97;;;19.02;40.21
13011;BME280;6786;57.632;11.962;2023-05-03T08:09:13;101886.44;;;19.03;40.28
13011;BME280;6786;57.632;11.962;2023-05-03T08:11:41;101872.91;;;18.92;40.28
13011;BME280;6786;57.632;11.962;2023-05-03T08:14:10;101827.66;;;18.50;40.14
13011;BME280;6786;57.632;11.962;2023-05-03T08:16:38;101886.44;;;19.03;40.28
13011;BME280;6786;57.632;11.962;2023-05-03T08:19:07;101890.06;;;19.02;40.32
13011;BME280;6786;57.632;11.962;2023-05-03T08:21:36;101899.84;;;19.03;40.21
13011;BME280;6786;57.632;11.962;2023-05-03T08:24:04;101902.50;;;19.03;40.25
13011;BME280;6786;57.632;11.962;2023-05-03T08:26:34;101891.78;;;19.03;40.22
13011;BME280;6786;57.632;11.962;2023-05-03T08:29:02;101900.78;;;19.02;40.29
13011;BME280;6786;57.632;11.962;2023-05-03T08:31:31;101890.06;;;19.02;40.31
13011;BME280;6786;57.632;11.962;2023-05-03T08:33:59;101907.00;;;19.02;40.30
13011;BME280;6786;57.632;11.962;2023-05-03T08:36:27;101893.72;;;19.01;40.26
13011;BME280;6786;57.632;11.962;2023-05-03T08:38:56;101919.53;;;19.02;40.03
13011;BME280;6786;57.632;11.962;2023-05-03T08:41:27;101900.78;;;19.02;40.31
13011;BME280;6786;57.632;11.962;2023-05-03T08:43:58;101819.41;;;18.53;40.31
13011;BME280;6786;57.632;11.962;2023-05-03T08:46:27;101909.78;;;19.01;40.35
13011;BME280;6786;57.632;11.962;2023-05-03T08:48:57;101904.44;;;19.01;40.18
13011;BME280;6786;57.632;11.962;2023-05-03T08:51:26;101907.09;;;19.01;40.32
13011;BME280;6786;57.632;11.962;2023-05-03T08:53:54;101915.16;;;19.01;40.34
13011;BME280;6786;57.632;11.962;2023-05-03T08:56:27;101916.00;;;19.01;40.41
13011;BME280;6786;57.632;11.962;2023-05-03T08:58:56;101911.50;;;19.02;40.33
13011;BME280;6786;57.632;11.962;2023-05-03T09:01:30;101911.69;;;18.99;40.21
13011;BME280;6786;57.632;11.962;2023-05-03T09:03:59;101914.28;;;19.00;40.26
13011;BME280;6786;57.632;11.962;2023-05-03T09:06:27;101919.63;;;19.00;40.28
13011;BME280;6786;57.632;11.962;2023-05-03T09:08:55;101924.16;;;19.00;40.27
13011;BME280;6786;57.632;11.962;2023-05-03T09:11:27;101833.22;;;18.47;40.31
13011;BME280;6786;57.632;11.962;2023-05-03T09:14:07;101935.59;;;19.02;40.25
13011;BME280;6786;57.632;11.962;2023-05-03T09:16:36;101932.19;;;19.00;40.22
13011;BME280;6786;57.632;11.962;2023-05-03T09:19:06;101932.94;;;19.02;40.26
13011;BME280;6786;57.632;11.962;2023-05-03T09:21:35;101925.88;;;19.01;40.23
13011;BME280;6786;57.632;11.962;2023-05-03T09:24:11;101938.28;;;19.02;40.29
13011;BME280;6786;57.632;11.962;2023-05-03T09:26:42;101934.78;;;19.01;40.21
13011;BME280;6786;57.632;11.962;2023-05-03T09:29:26;101929.41;;;19.01;40.27
13011;BME280;6786;57.632;11.962;2023-05-03T09:31:58;101888.53;;;18.73;40.33
13011;BME280;6786;57.632;11.962;2023-05-03T09:34:27;101936.59;;;19.01;40.24
13011;BME280;6786;57.632;11.962;2023-05-03T09:36:55;101940.97;;;19.02;40.26
13011;BME280;6786;57.632;11.962;2023-05-03T09:39:23;101938.28;;;19.02;40.31
13011;BME280;6786;57.632;11.962;2023-05-03T09:41:53;101928.66;;;18.99;40.22
13011;BME280;6786;57.632;11.962;2023-05-03T09:44:39;101941.94;;;19.01;40.23
13011;BME280;6786;57.632;11.962;2023-05-03T09:47:07;101947.31;;;19.01;40.25
13011;BME280;6786;57.632;11.962;2023-05-03T09:49:37;101942.81;;;19.01;40.28
13011;BME280;6786;57.632;11.962;2023-05-03T09:52:06;101875.44;;;18.56;40.23
13011;BME280;6786;57.632;11.962;2023-05-03T09:54:37;101958.03;;;19.01;40.14
13011;BME280;6786;57.632;11.962;2023-05-03T09:57:08;101954.38;;;19.02;40.17
13011;BME280;6786;57.632;11.962;2023-05-03T09:59:37;101889.38;;;18.61;40.22
13011;BME280;6786;57.632;11.962;2023-05-03T10:02:06;101948.16;;;19.01;40.32
13011;BME280;6786;57.632;11.962;2023-05-03T10:04:42;101949.00;;;19.02;40.25
13011;BME280;6786;57.632;11.962;2023-05-03T10:07:12;101954.38;;;19.02;40.26
13011;BME280;6786;57.632;11.962;2023-05-03T10:09:43;101961.47;;;19.03;40.27
13011;BME280;6786;57.632;11.962;2023-05-03T10:12:14;101884.03;;;18.61;40.15
13011;BME280;6786;57.632;11.962;2023-05-03T10:14:44;101958.88;;;19.01;40.18
13011;BME280;6786;57.632;11.962;2023-05-03T10:17:19;101959.72;;;19.02;40.26
13011;BME280;6786;57.632;11.962;2023-05-03T10:20:13;101983.00;;;19.01;40.34
13011;BME280;6786;57.632;11.962;2023-05-03T10:23:06;101960.59;;;19.02;40.26
13011;BME280;6786;57.632;11.962;2023-05-03T10:25:36;101813.31;;;18.12;40.39
13011;BME280;6786;57.632;11.962;2023-05-03T10:28:06;101963.38;;;19.01;40.24
13011;BME280;6786;57.632;11.962;2023-05-03T10:30:36;101964.25;;;19.01;40.26
13011;BME280;6786;57.632;11.962;2023-05-03T10:33:28;101961.66;;;19.00;40.15
13011;BME280;6786;57.632;11.962;2023-05-03T10:35:57;101963.38;;;19.01;40.23
13011;BME280;6786;57.632;11.962;2023-05-03T10:38:27;101957.16;;;19.00;40.22
13011;BME280;6786;57.632;11.962;2023-05-03T10:40:58;101958.03;;;19.01;40.33
13011;BME280;6786;57.632;11.962;2023-05-03T10:43:43;101972.19;;;19.03;40.28
13011;BME280;6786;57.632;11.962;2023-05-03T10:46:32;101960.69;;;19.01;40.33
13011;BME280;6786;57.632;11.962;2023-05-03T10:49:18;101966.06;;;19.01;40.21
13011;BME280;6786;57.632;11.962;2023-05-03T10:51:47;101886.03;;;18.45;40.15
13011;BME280;6786;57.632;11.962;2023-05-03T10:54:15;101976.88;;;18.99;40.17
13011;BME280;6786;57.632;11.962;2023-05-03T10:56:52;101967.03;;;19.00;40.32
13011;BME280;6786;57.632;11.962;2023-05-03T10:59:22;101943.84;;;18.86;40.16
13011;BME280;6786;57.632;11.962;2023-05-03T11:01:51;101972.38;;;19.00;40.18
13011;BME280;6786;57.632;11.962;2023-05-03T11:04:33;101968.72;;;19.01;40.30
13011;BME280;6786;57.632;11.962;2023-05-03T11:07:02;101891.50;;;18.56;40.27
13011;BME280;6786;57.632;11.962;2023-05-03T11:09:32;101974.09;;;19.01;40.31
13011;BME280;6786;57.632;11.962;2023-05-03T11:12:05;101963.38;;;19.01;40.19
13011;BME280;6786;57.632;11.962;2023-05-03T11:14:35;101970.44;;;19.02;40.28
13011;BME280;6786;57.632;11.962;2023-05-03T11:17:05;101966.81;;;19.03;40.30
13011;BME280;6786;57.632;11.962;2023-05-03T11:19:33;101973.13;;;19.02;40.31
13011;BME280;6786;57.632;11.962;2023-05-03T11:22:02;101975.81;;;19.02;40.19
13011;BME280;6786;57.632;11.962;2023-05-03T11:24:30;101982.91;;;19.03;40.19
13011;BME280;6786;57.632;11.962;2023-05-03T11:26:58;101825.19;;;18.08;40.23
13011;BME280;6786;57.632;11.962;2023-05-03T11:29:35;101976.66;;;19.02;40.28
13011;BME280;6786;57.632;11.962;2023-05-03T11:32:07;101982.91;;;19.03;40.27
13011;BME280;6786;57.632;11.962;2023-05-03T11:34:36;101982.91;;;19.03;40.21
13011;BME280;6786;57.632;11.962;2023-05-03T11:37:07;101978.47;;;19.02;40.44
13011;BME280;6786;57.632;11.962;2023-05-03T11:39:35;101979.25;;;19.04;40.26
13011;BME280;6786;57.632;11.962;2023-05-03T11:42:04;101990.94;;;19.03;40.25
13011;BME280;6786;57.632;11.962;2023-05-03T11:44:33;101981.94;;;19.04;40.28
13011;BME280;6786;57.632;11.962;2023-05-03T11:47:03;101959.50;;;18.92;40.18
13011;BME280;6786;57.632;11.962;2023-05-03T11:49:31;101984.59;;;19.04;40.23
13011;BME280;6786;57.632;11.962;2023-05-03T11:52:00;101989.97;;;19.04;40.23
13011;BME280;6786;57.632;11.962;2023-05-03T11:54:29;101993.63;;;19.03;40.33
13011;BME280;6786;57.632;11.962;2023-05-03T11:56:57;101989.97;;;19.04;40.27
13011;BME280;6786;57.632;11.962;2023-05-03T11:59:33;101989.09;;;19.03;40.31
13011;BME280;6786;57.632;11.962;2023-05-03T12:02:03;101984.72;;;19.02;40.29
13011;BME280;6786;57.632;11.962;2023-05-03T12:04:34;101982.91;;;19.03;40.32
13011;BME280;6786;57.632;11.962;2023-05-03T12:07:08;101882.59;;;18.43;40.19
13011;BME280;6786;57.632;11.962;2023-05-03T12:09:37;101921.50;;;18.61;40.28
13011;BME280;6786;57.632;11.962;2023-05-03T12:12:07;101982.91;;;19.03;40.32
13011;BME280;6786;57.632;11.962;2023-05-03T12:14:55;101915.94;;;18.64;40.24
13011;BME280;6786;57.632;11.962;2023-05-03T12:17:36;101982.91;;;19.03;40.42
13011;BME280;6786;57.632;11.962;2023-05-03T12:20:16;101993.63;;;19.03;40.24
13011;BME280;6786;57.632;11.962;2023-05-03T12:22:50;101998.97;;;19.03;40.21
13011;BME280;6786;57.632;11.962;2023-05-03T12:25:24;101992.84;;;19.01;40.31
13011;BME280;6786;57.632;11.962;2023-05-03T12:27:58;101991.88;;;19.02;40.25
13011;BME280;6786;57.632;11.962;2023-05-03T12:30:45;101998.41;;;18.98;40.30
13011;BME280;6786;57.632;11.962;2023-05-03T12:33:15;101998.97;;;19.03;40.15
13011;BME280;6786;57.632;11.962;2023-05-03T12:35:48;101998.97;;;19.03;40.28
13011;BME280;6786;57.632;11.962;2023-05-03T12:38:19;101937.13;;;18.54;40.27
13011;BME280;6786;57.632;11.962;2023-05-03T12:40:51;102012.38;;;19.03;40.19
13011;BME280;6786;57.632;11.962;2023-05-03T12:43:20;102001.66;;;19.03;40.29
13011;BME280;6786;57.632;11.962;2023-05-03T12:45:48;102002.38;;;19.05;40.20
13011;BME280;6786;57.632;11.962;2023-05-03T12:48:36;101964.81;;;18.80;40.29
13011;BME280;6786;57.632;11.962;2023-05-03T12:51:05;101998.97;;;19.03;40.26
13011;BME280;6786;57.632;11.962;2023-05-03T12:53:46;101997.25;;;19.02;40.05
13011;BME280;6786;57.632;11.962;2023-05-03T12:56:20;101998.00;;;19.04;40.20
13011;BME280;6786;57.632;11.962;2023-05-03T12:58:50;101995.31;;;19.04;40.12
13011;BME280;6786;57.632;11.962;2023-05-03T13:01:39;101992.66;;;19.04;40.32
13011;BME280;6786;57.632;11.962;2023-05-03T13:04:11;101993.63;;;19.03;40.36
13011;BME280;6786;57.632;11.962;2023-05-03T13:06:43;102000.69;;;19.04;40.28